Time;durP1;ratioP1;P1;durP2;ratioP2;P2;SDS_P1;SDS_P2;PMS_P1;PMS_P2;Temp;Humidity;BMP_temperature;BMP_pressure;BME280_temperature;BME280_humidity;BME280_pressure;Samples;Min_cycle;Max_cycle;Signal;HPM_P1;HPM_P2
2023/12/08 00:00:25;;;;;;;14.55;12.65;;;;;;;2.96;72.30;94652.38;4170017;28;20099;-69
2023/12/08 00:02:27;;;;;;;15.98;13.05;;;;;;;2.90;72.83;94650.25;4169662;28;20053;-69
2023/12/08 00:04:29;;;;;;;13.98;12.48;;;;;;;2.93;72.44;94650.84;4174489;28;20049;-70
2023/12/08 00:06:31;;;;;;;15.50;12.88;;;;;;;2.94;72.85;94652.50;4176523;28;20045;-67
2023/12/08 00:08:34;;;;;;;15.80;13.35;;;;;;;2.97;72.92;94652.28;4177950;28;20049;-68
2023/12/08 00:10:36;;;;;;;13.98;12.10;;;;;;;2.98;72.60;94658.28;4177094;28;20053;-69
2023/12/08 00:12:38;;;;;;;14.40;12.85;;;;;;;3.07;72.79;94652.41;4176258;28;20491;-68
2023/12/08 00:14:39;;;;;;;15.48;12.10;;;;;;;2.97;72.39;94657.44;4176725;28;20061;-67
2023/12/08 00:16:42;;;;;;;13.45;11.93;;;;;;;2.95;72.29;94655.94;4160495;28;20133;-68
2023/12/08 00:18:43;;;;;;;14.15;12.30;;;;;;;2.91;72.91;94657.91;4175667;28;20052;-69
2023/12/08 00:20:45;;;;;;;13.13;11.65;;;;;;;2.88;72.80;94658.13;4171286;28;20053;-67
2023/12/08 00:22:47;;;;;;;14.20;12.68;;;;;;;2.89;72.60;94656.38;4167331;28;20049;-70
2023/12/08 00:24:50;;;;;;;15.00;11.90;;;;;;;2.89;72.68;94659.78;4170246;28;20461;-70
2023/12/08 00:26:52;;;;;;;16.25;13.43;;;;;;;2.94;72.80;94660.25;4172923;28;20041;-67
2023/12/08 00:28:54;;;;;;;14.77;12.18;;;;;;;2.94;72.35;94657.66;4166448;28;20046;-66
2023/12/08 00:30:56;;;;;;;13.52;11.98;;;;;;;3.00;72.86;94656.41;4174009;28;20107;-68
2023/12/08 00:32:58;;;;;;;14.43;12.93;;;;;;;3.04;72.76;94663.00;4176444;28;20057;-70
2023/12/08 00:35:00;;;;;;;16.38;12.80;;;;;;;2.96;72.50;94655.78;4177091;28;20068;-69
2023/12/08 00:37:03;;;;;;;15.57;13.15;;;;;;;2.96;72.91;94657.56;4176252;28;20094;-68
2023/12/08 00:39:04;;;;;;;13.95;12.43;;;;;;;2.98;73.20;94659.09;4165988;28;20049;-68
2023/12/08 00:41:08;;;;;;;14.00;12.50;;;;;;;3.00;72.77;94644.28;4176209;28;20823;-66
2023/12/08 00:43:10;;;;;;;12.93;11.35;;;;;;;3.02;72.33;94650.16;4170888;28;20060;-69
2023/12/08 00:45:12;;;;;;;14.50;11.65;;;;;;;3.04;72.24;94650.88;4170343;28;20423;-67
2023/12/08 00:47:14;;;;;;;13.23;11.82;;;;;;;3.02;72.20;94649.34;4171418;28;20096;-67
2023/12/08 00:49:15;;;;;;;12.88;11.55;;;;;;;2.97;72.48;94643.66;4177409;28;20060;-69
2023/12/08 00:51:18;;;;;;;12.90;11.45;;;;;;;2.96;72.52;94650.63;4175507;28;20057;-67
2023/12/08 00:53:19;;;;;;;13.90;12.50;;;;;;;3.05;72.65;94649.94;4170357;28;20049;-68
2023/12/08 00:55:21;;;;;;;14.93;12.57;;;;;;;3.04;72.14;94647.47;4162169;28;20049;-67
2023/12/08 00:57:23;;;;;;;16.98;11.77;;;;;;;3.02;72.10;94649.34;4172415;28;20114;-65
2023/12/08 00:59:26;;;;;;;12.93;10.45;;;;;;;3.05;72.32;94655.13;4177608;28;20492;-65
2023/12/08 01:01:27;;;;;;;12.10;10.57;;;;;;;3.08;71.88;94656.66;4172630;28;20461;-68
2023/12/08 01:03:29;;;;;;;12.88;11.18;;;;;;;3.12;71.92;94660.66;4159241;28;20088;-69
2023/12/08 01:05:31;;;;;;;11.30;10.10;;;;;;;3.08;71.82;94654.88;4165408;28;20145;-69
2023/12/08 01:07:33;;;;;;;12.23;10.25;;;;;;;3.07;71.53;94655.00;4189197;28;20651;-69
2023/12/08 01:09:36;;;;;;;12.65;10.27;;;;;;;3.02;72.05;94654.53;4171246;28;20500;-67
2023/12/08 01:11:37;;;;;;;11.98;10.52;;;;;;;3.04;71.75;94657.81;4180385;28;20053;-68
2023/12/08 01:13:39;;;;;;;11.57;10.05;;;;;;;3.02;71.84;94651.94;4171538;28;20052;-69
2023/12/08 01:15:41;;;;;;;11.85;10.52;;;;;;;2.96;71.71;94662.72;4177046;28;20048;-68
2023/12/08 01:17:43;;;;;;;10.77;9.35;;;;;;;3.05;71.62;94656.88;4189163;28;20044;-67
2023/12/08 01:19:45;;;;;;;11.32;9.55;;;;;;;2.94;71.73;94659.44;4174376;28;20073;-67
2023/12/08 01:21:47;;;;;;;12.40;10.27;;;;;;;3.01;72.17;94652.84;4164904;28;20072;-68
2023/12/08 01:23:49;;;;;;;12.10;9.65;;;;;;;2.92;71.59;94654.38;4178363;28;20045;-69
2023/12/08 01:25:52;;;;;;;12.27;10.57;;;;;;;2.91;72.07;94659.69;4168847;28;20099;-69
2023/12/08 01:27:56;;;;;;;12.07;10.45;;;;;;;2.90;72.28;94660.59;4176395;28;20040;-67
2023/12/08 01:29:58;;;;;;;11.52;10.20;;;;;;;2.98;72.16;94658.28;4165182;28;20427;-68
2023/12/08 01:32:00;;;;;;;12.18;10.80;;;;;;;3.00;71.76;94651.22;4165954;28;20131;-68
2023/12/08 01:34:02;;;;;;;12.02;10.75;;;;;;;3.00;71.79;94644.28;4164591;28;20049;-67
2023/12/08 01:36:04;;;;;;;12.88;10.68;;;;;;;3.03;71.52;94649.25;4177300;28;20045;-68
2023/12/08 01:38:28;;;;;;;12.45;11.00;;;;;;;3.03;71.61;94649.25;4164474;28;20052;-68
2023/12/08 01:40:30;;;;;;;;;;;;;;;3.01;71.58;94658.03;4175868;28;20426;-69
2023/12/08 01:42:32;;;;;;;12.70;10.35;;;;;;;3.00;71.24;94651.22;4176767;28;19960;-69
2023/12/08 01:44:34;;;;;;;12.93;11.52;;;;;;;2.94;71.63;94656.84;4177992;28;20416;-67
2023/12/08 01:46:37;;;;;;;12.65;11.35;;;;;;;2.96;71.48;94660.16;4179137;28;20480;-69
2023/12/08 01:48:39;;;;;;;13.90;11.73;;;;;;;2.92;71.47;94656.13;4179739;28;20041;-71
2023/12/08 01:50:41;;;;;;;14.30;12.05;;;;;;;2.91;70.97;94651.91;4177438;28;20048;-69
2023/12/08 01:52:43;;;;;;;13.82;12.18;;;;;;;2.92;71.91;94650.97;4169147;28;20528;-69
2023/12/08 01:54:45;;;;;;;13.55;12.00;;;;;;;3.00;71.73;94656.41;4171408;28;20138;-68
2023/12/08 01:56:47;;;;;;;12.80;10.68;;;;;;;3.01;71.43;94639.91;4177438;28;20053;-68
2023/12/08 01:58:49;;;;;;;12.65;11.00;;;;;;;2.97;71.11;94656.59;4178310;28;20041;-68
2023/12/08 02:00:52;;;;;;;13.48;11.60;;;;;;;2.93;71.13;94645.69;4179025;28;20045;-70
2023/12/08 02:02:56;;;;;;;17.58;12.07;;;;;;;2.96;71.06;94652.38;4177233;28;20086;-67
2023/12/08 02:04:59;;;;;;;11.98;10.63;;;;;;;2.93;70.55;94650.84;4174381;28;20049;-71
2023/12/08 02:07:01;;;;;;;12.40;11.10;;;;;;;3.04;71.03;94645.69;4178631;28;20049;-69
2023/12/08 02:09:03;;;;;;;12.82;10.63;;;;;;;3.02;70.42;94644.97;4175148;28;20045;-69
2023/12/08 02:11:05;;;;;;;12.27;10.52;;;;;;;3.00;70.44;94649.44;4175199;28;20221;-69
2023/12/08 02:13:08;;;;;;;13.80;10.63;;;;;;;3.00;70.12;94661.56;4173395;28;20104;-69
2023/12/08 02:15:12;;;;;;;12.63;10.75;;;;;;;2.97;69.96;94666.97;4172802;28;20057;-66
2023/12/08 02:17:33;;;;;;;13.95;11.57;;;;;;;2.98;69.83;94666.03;4167189;28;20053;-68
2023/12/08 02:19:35;;;;;;;11.70;10.10;;;;;;;3.01;70.16;94673.56;4168308;28;20048;-68
2023/12/08 02:21:37;;;;;;;10.70;8.95;;;;;;;2.93;70.12;94668.16;4174214;28;20048;-69
2023/12/08 02:23:48;;;;;;;11.73;10.25;;;;;;;2.96;69.96;94667.91;4167657;28;20083;-68
2023/12/08 02:25:50;;;;;;;11.45;10.20;;;;;;;2.96;70.23;94673.91;4177556;28;20447;-71
2023/12/08 02:27:51;;;;;;;11.30;9.70;;;;;;;2.98;69.99;94678.97;4169423;28;20056;-67
2023/12/08 02:29:54;;;;;;;12.48;10.82;;;;;;;3.00;70.15;94675.31;4172129;28;20051;-68
2023/12/08 02:32:01;;;;;;;11.18;9.80;;;;;;;3.00;70.25;94667.56;4179005;28;20128;-65
2023/12/08 02:34:05;;;;;;;12.48;10.02;;;;;;;3.06;70.08;94674.88;4177541;28;20532;-67
2023/12/08 02:36:08;;;;;;;11.95;9.82;;;;;;;3.09;70.07;94666.06;4170419;28;20484;-68
2023/12/08 02:38:14;;;;;;;12.18;9.95;;;;;;;3.13;69.99;94682.19;4166202;28;20055;-68
2023/12/08 02:40:17;;;;;;;12.82;9.93;;;;;;;3.10;69.53;94666.88;4169888;28;20049;-69
2023/12/08 02:42:18;;;;;;;11.80;10.20;;;;;;;3.06;69.29;94668.88;4177617;28;20087;-68
2023/12/08 02:44:20;;;;;;;11.43;9.95;;;;;;;3.04;69.27;94669.00;4172860;28;20061;-66
2023/12/08 02:46:22;;;;;;;11.57;10.23;;;;;;;3.06;69.18;94671.47;4167455;28;20053;-70
2023/12/08 02:48:24;;;;;;;11.43;10.23;;;;;;;3.01;69.35;94666.63;4168994;28;20084;-69
2023/12/08 02:50:26;;;;;;;12.40;10.48;;;;;;;3.05;68.97;94672.41;4168658;28;20135;-70
2023/12/08 02:52:28;;;;;;;11.07;9.95;;;;;;;3.12;69.03;94671.03;4177486;28;20048;-68
2023/12/08 02:54:30;;;;;;;12.27;10.40;;;;;;;3.07;68.84;94676.50;4177926;28;20128;-69
2023/12/08 02:56:32;;;;;;;13.30;11.05;;;;;;;3.04;69.17;94674.16;4175579;28;20063;-70
2023/12/08 02:58:34;;;;;;;14.30;11.70;;;;;;;3.02;69.07;94670.06;4155559;28;20050;-69
2023/12/08 03:00:36;;;;;;;13.38;11.32;;;;;;;3.04;69.05;94673.34;4178721;28;20106;-69
2023/12/08 03:02:38;;;;;;;13.90;11.55;;;;;;;2.94;69.28;94662.84;4166579;28;20064;-69
2023/12/08 03:04:40;;;;;;;14.15;10.90;;;;;;;3.01;68.82;94666.63;4177128;28;20060;-70
2023/12/08 03:06:42;;;;;;;13.98;11.15;;;;;;;2.95;69.31;94667.09;4178408;28;20094;-69
2023/12/08 03:08:44;;;;;;;12.73;10.65;;;;;;;2.96;68.98;94673.09;4181929;28;20050;-69
2023/12/08 03:10:46;;;;;;;13.35;10.85;;;;;;;2.97;68.91;94670.38;4186310;28;20159;-68
2023/12/08 03:12:48;;;;;;;13.43;10.98;;;;;;;2.89;68.98;94674.50;4178399;28;20053;-68
2023/12/08 03:14:50;;;;;;;12.00;9.68;;;;;;;2.93;69.25;94674.13;4174788;28;20182;-69
2023/12/08 03:16:52;;;;;;;15.80;10.70;;;;;;;2.99;69.26;94671.09;4168079;28;20049;-68
2023/12/08 03:18:54;;;;;;;12.90;10.43;;;;;;;3.03;69.13;94671.69;4170485;28;20378;-67
2023/12/08 03:20:56;;;;;;;13.95;10.57;;;;;;;3.01;68.74;94668.38;4175643;28;20049;-68
2023/12/08 03:22:59;;;;;;;12.82;10.13;;;;;;;2.97;68.90;94661.78;4173167;28;20052;-69
2023/12/08 03:25:01;;;;;;;13.55;10.82;;;;;;;2.96;69.08;94662.72;4174131;28;20099;-68
2023/12/08 03:27:03;;;;;;;12.45;11.00;;;;;;;2.97;68.99;94664.38;4175212;28;20057;-70
2023/12/08 03:29:05;;;;;;;12.63;10.75;;;;;;;2.97;69.10;94664.38;4178989;28;20188;-69
2023/12/08 03:31:21;;;;;;;12.55;10.70;;;;;;;2.90;69.11;94671.75;4175584;28;20044;-66
2023/12/08 03:33:23;;;;;;;14.18;10.40;;;;;;;2.95;69.37;94669.69;4176421;28;20063;-68
2023/12/08 03:35:25;;;;;;;12.38;10.23;;;;;;;3.01;69.01;94668.38;4170836;28;20046;-70
2023/12/08 03:37:27;;;;;;;11.10;9.95;;;;;;;3.02;69.27;94662.28;4170776;28;20076;-66
2023/12/08 03:39:29;;;;;;;12.20;10.43;;;;;;;3.00;69.32;94667.56;4174658;28;20110;-70
2023/12/08 03:41:31;;;;;;;11.38;10.18;;;;;;;2.99;69.43;94667.66;4175519;28;20510;-68
2023/12/08 03:43:33;;;;;;;13.02;11.63;;;;;;;2.96;69.13;94654.97;4175657;28;20045;-67
2023/12/08 03:45:36;;;;;;;12.35;11.05;;;;;;;2.97;69.54;94664.38;4174745;28;20045;-68
2023/12/08 03:47:38;;;;;;;11.25;9.77;;;;;;;2.93;68.67;94661.19;4171471;28;20069;-68
2023/12/08 03:49:40;;;;;;;12.15;10.70;;;;;;;2.92;69.19;94658.72;4174578;28;20052;-69
2023/12/08 03:51:42;;;;;;;11.88;10.60;;;;;;;2.93;69.52;94662.97;4175189;28;20593;-67
2023/12/08 03:53:44;;;;;;;12.00;10.65;;;;;;;2.93;69.53;94650.03;4174030;28;20477;-68
2023/12/08 03:55:46;;;;;;;11.23;10.00;;;;;;;2.94;69.47;94656.84;4173032;28;20057;-69
2023/12/08 03:57:48;;;;;;;11.93;10.57;;;;;;;2.91;69.54;94655.31;4171931;28;20420;-68
2023/12/08 03:59:50;;;;;;;11.00;9.70;;;;;;;2.85;69.46;94655.75;4171655;28;20458;-69
2023/12/08 04:01:53;;;;;;;11.55;10.35;;;;;;;2.84;69.04;94651.53;4174469;28;20350;-68
2023/12/08 04:03:55;;;;;;;13.07;11.68;;;;;;;2.91;69.74;94651.91;4174984;28;20159;-67
2023/12/08 04:05:56;;;;;;;12.38;11.05;;;;;;;2.95;69.64;94641.22;4177153;28;20053;-69
2023/12/08 04:07:59;;;;;;;12.75;10.52;;;;;;;2.92;69.49;94636.25;4178180;28;20468;-69
2023/12/08 04:10:00;;;;;;;12.90;10.70;;;;;;;2.91;69.47;94634.63;4174992;28;20443;-68
2023/12/08 04:12:03;;;;;;;12.48;10.82;;;;;;;2.98;69.46;94638.38;4172643;28;20049;-69
2023/12/08 04:14:05;;;;;;;14.27;11.55;;;;;;;2.92;68.86;94619.91;4164188;28;20144;-69
2023/12/08 04:16:07;;;;;;;13.95;11.90;;;;;;;3.01;69.26;94624.38;4170846;28;20102;-68
2023/12/08 04:18:09;;;;;;;14.15;11.85;;;;;;;2.91;68.69;94624.25;4176136;28;20051;-70
2023/12/08 04:20:11;;;;;;;14.30;12.23;;;;;;;2.92;69.35;94622.50;4162911;28;20144;-69
2023/12/08 04:22:13;;;;;;;15.90;12.50;;;;;;;2.91;68.89;94616.50;4163534;28;20053;-68
2023/12/08 04:24:16;;;;;;;14.43;12.63;;;;;;;2.96;68.91;94616.16;4170374;28;20457;-67
2023/12/08 04:26:24;;;;;;;12.23;10.20;;;;;;;2.90;68.25;94620.00;4177036;28;20547;-70
2023/12/08 04:28:27;;;;;;;12.77;11.02;;;;;;;2.73;69.01;94623.88;4175539;28;20045;-69
2023/12/08 04:30:29;;;;;;;13.32;11.88;;;;;;;2.71;69.45;94619.72;4162018;28;20056;-68
2023/12/08 04:32:31;;;;;;;14.43;12.23;;;;;;;2.77;69.62;94619.28;4171241;28;20412;-67
2023/12/08 04:34:33;;;;;;;12.63;11.00;;;;;;;2.79;69.07;94627.75;4166456;28;20053;-67
2023/12/08 04:36:35;;;;;;;13.45;12.00;;;;;;;2.77;69.79;94625.28;4173795;28;20041;-70
2023/12/08 04:38:37;;;;;;;15.30;11.98;;;;;;;2.79;69.08;94622.59;4159578;28;20516;-68
2023/12/08 04:40:39;;;;;;;14.40;12.23;;;;;;;2.80;69.32;94632.00;4178028;28;20041;-69
2023/12/08 04:42:41;;;;;;;13.63;11.30;;;;;;;2.82;69.26;94640.47;4163809;28;20060;-70
2023/12/08 04:44:43;;;;;;;11.55;10.35;;;;;;;2.76;68.78;94639.16;4166465;28;20052;-68
2023/12/08 04:46:45;;;;;;;12.52;10.93;;;;;;;2.71;69.36;94643.84;4171408;28;20185;-69
2023/12/08 04:48:47;;;;;;;11.68;10.25;;;;;;;2.68;69.17;94649.25;4171040;28;20045;-67
2023/12/08 04:50:54;;;;;;;12.32;11.00;;;;;;;2.68;69.20;94649.25;4168390;28;20084;-68
2023/12/08 04:52:56;;;;;;;13.90;11.77;;;;;;;2.75;69.50;94658.19;4173710;28;20463;-68
2023/12/08 04:54:58;;;;;;;11.65;9.88;;;;;;;2.75;69.22;94658.19;4172779;28;20135;-68
2023/12/08 04:57:00;;;;;;;11.15;9.98;;;;;;;2.69;68.76;94660.41;4169915;28;20088;-69
2023/12/08 04:59:02;;;;;;;12.52;10.50;;;;;;;2.77;69.67;94655.50;4165425;28;20073;-67
2023/12/08 05:01:05;;;;;;;13.63;10.88;;;;;;;2.75;69.15;94657.38;4163520;28;20049;-70
2023/12/08 05:03:07;;;;;;;12.93;11.07;;;;;;;2.70;69.01;94665.47;4172836;28;20076;-69
2023/12/08 05:05:11;;;;;;;14.57;10.48;;;;;;;2.67;69.32;94655.38;4194603;28;20486;-69
2023/12/08 05:07:13;;;;;;;11.63;10.05;;;;;;;2.69;69.09;94652.66;4167405;28;20075;-69
2023/12/08 05:09:15;;;;;;;11.85;9.80;;;;;;;2.75;68.91;94665.94;4175953;28;20053;-69
2023/12/08 05:11:17;;;;;;;10.88;9.55;;;;;;;2.69;68.92;94660.41;4175633;28;20080;-70
2023/12/08 05:13:19;;;;;;;10.57;9.48;;;;;;;2.69;68.79;94661.25;4174790;28;20057;-69
2023/12/08 05:15:21;;;;;;;11.27;9.13;;;;;;;2.44;69.27;94663.00;4177322;28;20050;-70
2023/12/08 05:17:23;;;;;;;9.55;8.38;;;;;;;2.39;69.60;94657.38;4175703;28;20131;-67
2023/12/08 05:19:25;;;;;;;10.45;9.35;;;;;;;2.44;69.82;94662.19;4180652;28;20468;-69
2023/12/08 05:21:28;;;;;;;10.38;9.02;;;;;;;2.48;69.67;94665.41;4177938;28;20503;-69
2023/12/08 05:23:30;;;;;;;10.07;8.43;;;;;;;2.53;69.37;94658.13;4177385;28;20476;-70
2023/12/08 05:25:31;;;;;;;10.25;9.15;;;;;;;2.59;69.31;94661.09;4180556;28;20457;-70
2023/12/08 05:27:33;;;;;;;10.18;9.07;;;;;;;2.53;69.33;94658.94;4178395;28;20049;-69
2023/12/08 05:29:35;;;;;;;10.90;9.80;;;;;;;2.62;69.86;94663.47;4149445;28;20067;-69
2023/12/08 05:31:37;;;;;;;11.32;9.35;;;;;;;2.72;69.66;94666.19;4174054;28;20057;-69
2023/12/08 05:33:39;;;;;;;11.48;10.18;;;;;;;2.71;69.24;94651.63;4167686;28;20140;-70
2023/12/08 05:35:41;;;;;;;11.57;10.15;;;;;;;2.77;69.50;94658.91;4180147;28;20408;-71
2023/12/08 05:37:43;;;;;;;11.18;9.95;;;;;;;2.85;69.04;94666.94;4180594;28;20415;-69
2023/12/08 05:39:45;;;;;;;12.40;11.02;;;;;;;2.93;69.45;94662.97;4177441;28;20045;-70
2023/12/08 05:41:47;;;;;;;12.88;10.10;;;;;;;2.91;68.65;94667.44;4170818;28;20049;-71
2023/12/08 05:43:49;;;;;;;11.63;10.43;;;;;;;3.01;68.67;94663.22;4169920;28;20077;-70
2023/12/08 05:45:51;;;;;;;12.13;9.60;;;;;;;3.07;68.69;94670.50;4175421;28;20182;-69
2023/12/08 05:47:53;;;;;;;10.93;9.63;;;;;;;3.03;67.87;94669.09;4177324;28;20046;-69
2023/12/08 05:49:55;;;;;;;10.80;9.48;;;;;;;3.11;67.89;94666.75;4171857;28;20037;-70
2023/12/08 05:51:57;;;;;;;10.93;9.48;;;;;;;3.12;67.34;94667.59;4177078;28;20052;-69
2023/12/08 05:53:59;;;;;;;10.85;9.75;;;;;;;3.14;67.68;94671.72;4175889;28;20040;-70
2023/12/08 05:56:01;;;;;;;11.32;9.35;;;;;;;3.12;67.61;94665.84;4178101;28;20045;-71
2023/12/08 05:58:02;;;;;;;11.35;9.55;;;;;;;3.16;67.41;94666.41;4179073;28;20051;-69
2023/12/08 06:00:06;;;;;;;13.10;11.20;;;;;;;3.17;67.45;94670.66;4173986;28;20051;-70
2023/12/08 06:02:08;;;;;;;11.48;10.27;;;;;;;3.15;67.89;94668.19;4172864;28;20045;-70
2023/12/08 06:04:10;;;;;;;11.63;10.27;;;;;;;3.20;67.23;94683.38;4175730;28;20063;-69
2023/12/08 06:06:12;;;;;;;12.88;9.05;;;;;;;3.18;67.32;94693.84;4180175;28;20052;-70
2023/12/08 06:08:14;;;;;;;10.50;8.98;;;;;;;3.11;67.00;94684.06;4171703;28;20050;-70
2023/12/08 06:10:16;;;;;;;11.82;9.57;;;;;;;3.15;67.18;94686.31;4180365;28;20084;-70
2023/12/08 06:12:18;;;;;;;11.05;9.60;;;;;;;3.17;67.18;94684.44;4175378;28;20057;-69
2023/12/08 06:14:20;;;;;;;11.32;9.57;;;;;;;3.06;67.63;94684.41;4165890;28;20129;-69
2023/12/08 06:16:22;;;;;;;11.10;8.95;;;;;;;3.07;67.49;94688.63;4177385;28;20049;-70
2023/12/08 06:18:25;;;;;;;11.02;9.32;;;;;;;3.11;67.65;94684.88;4174816;28;20416;-70
2023/12/08 06:20:27;;;;;;;10.10;8.95;;;;;;;3.13;67.15;94695.94;4176943;28;20351;-70
2023/12/08 06:22:29;;;;;;;10.15;8.98;;;;;;;3.08;67.13;94688.53;4180410;28;20049;-70
2023/12/08 06:24:31;;;;;;;10.60;9.23;;;;;;;3.04;67.41;94699.22;4178521;28;20152;-70
2023/12/08 06:26:33;;;;;;;10.48;8.80;;;;;;;3.13;67.18;94698.53;4173248;28;20049;-70
2023/12/08 06:28:35;;;;;;;10.63;9.10;;;;;;;3.13;66.70;94701.13;4174075;28;20060;-69
2023/12/08 06:30:36;;;;;;;11.32;9.30;;;;;;;3.10;67.09;94703.97;4176421;28;20052;-70
2023/12/08 06:32:39;;;;;;;10.07;9.00;;;;;;;2.99;67.09;94706.50;4176015;28;20104;-70
2023/12/08 06:34:41;;;;;;;11.02;9.20;;;;;;;2.90;67.12;94707.16;4172205;28;20068;-69
2023/12/08 06:36:44;;;;;;;12.85;10.15;;;;;;;2.73;67.94;94706.66;4164489;28;20048;-69
2023/12/08 06:38:46;;;;;;;12.10;10.55;;;;;;;2.74;68.62;94703.13;4169820;28;20076;-69
2023/12/08 06:40:48;;;;;;;11.48;10.27;;;;;;;2.76;68.22;94706.41;4175875;28;20045;-70
2023/12/08 06:42:50;;;;;;;11.70;10.10;;;;;;;2.76;68.52;94700.44;4164746;28;20045;-70
2023/12/08 06:44:52;;;;;;;11.98;10.05;;;;;;;2.78;68.12;94707.13;4175985;28;20080;-69
2023/12/08 06:46:53;;;;;;;13.02;9.95;;;;;;;2.85;68.34;94708.31;4179463;28;20060;-70
2023/12/08 06:48:55;;;;;;;12.05;10.05;;;;;;;2.94;68.19;94713.78;4175756;28;20116;-71
2023/12/08 06:50:57;;;;;;;10.77;9.00;;;;;;;2.98;67.58;94712.63;4169132;28;20111;-70
2023/12/08 06:52:59;;;;;;;10.85;9.65;;;;;;;2.76;67.50;94716.78;4174308;28;20124;-70
2023/12/08 06:55:02;;;;;;;12.77;10.60;;;;;;;2.67;67.87;94712.28;4163570;28;20469;-71
2023/12/08 06:57:04;;;;;;;12.73;9.90;;;;;;;2.76;68.18;94713.38;4162105;28;20468;-70
2023/12/08 06:59:08;;;;;;;12.85;10.85;;;;;;;2.79;68.06;94719.13;4172471;28;20087;-70
2023/12/08 07:01:10;;;;;;;15.80;12.27;;;;;;;2.57;68.85;94722.44;4178789;28;20060;-70
2023/12/08 07:03:12;;;;;;;13.30;11.07;;;;;;;2.31;69.87;94713.13;4173063;28;20114;-70
2023/12/08 07:05:19;;;;;;;13.57;11.13;;;;;;;2.38;70.07;94710.00;4177950;28;20902;-71
2023/12/08 07:07:21;;;;;;;11.35;9.73;;;;;;;2.41;69.88;94712.38;4174032;28;20045;-69
2023/12/08 07:09:23;;;;;;;13.05;10.20;;;;;;;2.43;69.01;94707.91;4176913;28;20081;-70
2023/12/08 07:11:25;;;;;;;12.63;10.55;;;;;;;2.56;69.61;94714.78;4175235;28;20307;-71
2023/12/08 07:13:27;;;;;;;11.75;10.15;;;;;;;2.59;69.32;94709.41;4176253;28;20450;-71
2023/12/08 07:15:29;;;;;;;12.15;10.13;;;;;;;2.68;68.79;94711.31;4166699;28;20136;-68
2023/12/08 07:17:33;;;;;;;12.43;10.63;;;;;;;2.77;68.55;94725.34;4168190;28;20450;-68
2023/12/08 07:19:38;;;;;;;11.68;9.85;;;;;;;2.71;68.74;94712.84;4177196;28;20049;-70
2023/12/08 07:21:43;;;;;;;12.77;9.85;;;;;;;2.59;68.44;94723.16;4176947;28;20053;-69
2023/12/08 07:23:45;;;;;;;12.90;10.23;;;;;;;2.67;68.65;94715.69;4175224;28;20046;-69
2023/12/08 07:25:48;;;;;;;12.18;10.52;;;;;;;2.69;68.63;94715.56;4176855;28;20052;-70
2023/12/08 07:27:51;;;;;;;12.52;10.40;;;;;;;2.70;69.20;94716.38;4176091;28;20080;-69
2023/12/08 07:29:53;;;;;;;13.35;11.35;;;;;;;2.68;69.55;94708.72;4173424;28;20115;-71
2023/12/08 07:31:55;;;;;;;14.73;11.95;;;;;;;2.64;69.40;94718.47;4174971;28;20041;-71
2023/12/08 07:33:57;;;;;;;14.90;12.00;;;;;;;2.79;68.91;94720.88;4177183;28;20158;-70
2023/12/08 07:35:59;;;;;;;13.50;10.90;;;;;;;2.73;68.94;94716.16;4176747;28;20084;-70
2023/12/08 07:38:01;;;;;;;15.80;12.80;;;;;;;2.72;68.50;94725.69;4163507;28;20108;-71
2023/12/08 07:40:05;;;;;;;13.98;11.63;;;;;;;2.78;68.77;94724.44;4164212;28;20044;-70
2023/12/08 07:42:06;;;;;;;13.63;11.30;;;;;;;2.81;69.06;94716.44;4163241;28;20053;-70
2023/12/08 07:44:08;;;;;;;14.43;10.50;;;;;;;2.87;68.85;94716.81;4163477;28;20107;-71
2023/12/08 07:46:10;;;;;;;13.00;11.27;;;;;;;2.84;69.21;94719.63;4148310;28;20386;-69
2023/12/08 07:48:12;;;;;;;12.65;10.77;;;;;;;2.85;69.11;94723.84;4162387;28;20076;-70
2023/12/08 07:50:15;;;;;;;15.48;11.30;;;;;;;2.91;68.81;94717.41;4160906;28;20404;-70
2023/12/08 07:52:17;;;;;;;13.32;10.88;;;;;;;2.93;68.42;94717.31;4169142;28;20048;-71
2023/12/08 07:54:19;;;;;;;14.50;11.73;;;;;;;3.02;68.27;94725.22;4175884;28;20525;-71
2023/12/08 07:56:23;;;;;;;13.65;11.68;;;;;;;3.02;68.50;94725.22;4171926;28;20477;-70
2023/12/08 07:58:25;;;;;;;11.93;9.88;;;;;;;2.98;68.11;94720.38;4174836;28;20051;-69
2023/12/08 08:00:27;;;;;;;12.60;10.57;;;;;;;3.02;68.21;94732.97;4175681;28;20045;-72
2023/12/08 08:02:29;;;;;;;16.67;11.52;;;;;;;3.00;68.18;94719.31;4190153;28;20056;-70
2023/12/08 08:04:31;;;;;;;13.57;11.15;;;;;;;2.93;67.94;94717.31;4169338;28;20049;-71
2023/12/08 08:06:33;;;;;;;14.32;11.32;;;;;;;2.91;68.38;94714.81;4176971;28;20053;-70
2023/12/08 08:08:35;;;;;;;16.15;11.85;;;;;;;2.89;68.45;94721.06;4169314;28;20046;-70
2023/12/08 08:10:37;;;;;;;13.75;10.73;;;;;;;2.90;68.46;94723.50;4174833;28;20140;-70
2023/12/08 08:12:39;;;;;;;15.18;11.45;;;;;;;2.92;67.86;94721.66;4167709;28;20049;-70
2023/12/08 08:14:42;;;;;;;14.45;11.20;;;;;;;2.94;68.05;94718.94;4169312;28;20100;-71
2023/12/08 08:16:44;;;;;;;11.43;10.18;;;;;;;2.92;67.70;94711.28;4175118;28;20128;-70
2023/12/08 08:18:46;;;;;;;12.02;10.80;;;;;;;2.99;67.67;94706.50;4174253;28;20610;-68
2023/12/08 08:20:48;;;;;;;13.32;10.57;;;;;;;2.97;67.61;94708.38;4165230;28;20041;-70
2023/12/08 08:22:50;;;;;;;12.70;10.40;;;;;;;3.02;67.65;94707.09;4167454;28;20107;-70
2023/12/08 08:24:52;;;;;;;13.82;10.55;;;;;;;3.02;67.36;94695.94;4170345;28;20111;-71
2023/12/08 08:26:54;;;;;;;12.98;10.68;;;;;;;3.03;67.38;94694.97;4185149;28;20048;-69
2023/12/08 08:28:56;;;;;;;12.90;11.35;;;;;;;3.14;67.59;94696.75;4171397;28;20049;-70
2023/12/08 08:30:58;;;;;;;13.43;11.13;;;;;;;3.17;67.77;94699.97;4170579;28;20044;-70
2023/12/08 08:33:00;;;;;;;12.75;10.13;;;;;;;3.13;67.53;94687.38;4163226;28;20049;-71
2023/12/08 08:35:02;;;;;;;11.52;9.90;;;;;;;3.19;67.52;94684.31;4168849;28;20049;-70
2023/12/08 08:37:04;;;;;;;11.63;9.65;;;;;;;3.18;66.79;94677.47;4177561;28;20044;-70
2023/12/08 08:39:07;;;;;;;11.55;9.55;;;;;;;3.11;66.89;94684.88;4174375;28;20057;-71
2023/12/08 08:41:09;;;;;;;9.95;8.60;;;;;;;3.10;66.59;94677.22;4180180;28;20049;-70
2023/12/08 08:43:11;;;;;;;10.63;9.38;;;;;;;3.10;66.69;94677.22;4170778;28;20072;-70
2023/12/08 08:45:13;;;;;;;12.68;9.68;;;;;;;3.07;67.22;94673.09;4177005;28;20136;-71
2023/12/08 08:47:18;;;;;;;11.98;10.02;;;;;;;3.08;66.72;94670.41;4190153;28;20404;-70
2023/12/08 08:49:20;;;;;;;12.02;10.57;;;;;;;3.17;66.93;94679.25;4175070;28;20507;-71
2023/12/08 08:51:23;;;;;;;12.98;9.98;;;;;;;3.21;66.75;94672.91;4173656;28;20075;-70
2023/12/08 08:53:27;;;;;;;13.60;11.00;;;;;;;3.27;66.61;94676.81;4174297;28;20049;-72
2023/12/08 08:55:29;;;;;;;12.82;10.68;;;;;;;3.21;66.56;94672.91;4182065;28;20079;-71
2023/12/08 08:57:31;;;;;;;11.70;8.85;;;;;;;3.24;66.56;94667.50;4179856;28;20159;-70
2023/12/08 08:59:33;;;;;;;14.55;10.30;;;;;;;3.22;66.67;94668.56;4178467;28;20051;-71
2023/12/08 09:01:35;;;;;;;13.95;10.77;;;;;;;3.23;66.25;94662.44;4176311;28;20045;-70
2023/12/08 09:03:37;;;;;;;12.63;10.75;;;;;;;3.27;66.41;94656.09;4177110;28;20121;-70
2023/12/08 09:05:41;;;;;;;14.07;11.55;;;;;;;3.34;66.71;94664.22;4178631;28;20063;-71
2023/12/08 09:07:44;;;;;;;12.63;9.23;;;;;;;3.23;66.23;94660.69;4167724;28;20135;-70
2023/12/08 09:09:45;;;;;;;12.82;10.15;;;;;;;3.30;65.67;94660.22;4178330;28;20048;-71
2023/12/08 09:11:48;;;;;;;11.52;8.73;;;;;;;3.27;65.43;94650.94;4180271;28;20045;-69
2023/12/08 09:13:50;;;;;;;11.25;9.40;;;;;;;3.26;65.73;94662.22;4180554;28;20057;-70
2023/12/08 09:15:52;;;;;;;10.35;8.63;;;;;;;3.29;65.79;94656.78;4180564;28;20049;-70
2023/12/08 09:17:57;;;;;;;11.05;9.15;;;;;;;3.41;65.73;94655.84;4173249;28;20052;-70
2023/12/08 09:19:59;;;;;;;12.15;9.10;;;;;;;3.40;65.72;94650.78;4168696;28;20050;-70
2023/12/08 09:22:01;;;;;;;12.43;9.68;;;;;;;3.48;65.93;94649.28;4164294;28;20046;-69
2023/12/08 09:24:03;;;;;;;11.70;9.27;;;;;;;3.52;65.04;94651.63;4172986;28;20103;-73
2023/12/08 09:26:07;;;;;;;10.82;8.93;;;;;;;3.41;65.04;94645.50;4181074;28;20482;-70
2023/12/08 09:28:08;;;;;;;11.57;8.90;;;;;;;3.31;64.88;94638.56;4174233;28;20419;-69
2023/12/08 09:30:11;;;;;;;10.80;9.10;;;;;;;3.26;65.47;94642.31;4175394;28;20053;-69